Time;durP1;ratioP1;P1;durP2;ratioP2;P2;SDS_P1;SDS_P2;PMS_P1;PMS_P2;Temp;Humidity;BMP_temperature;BMP_pressure;BME280_temperature;BME280_humidity;BME280_pressure;Samples;Min_cycle;Max_cycle;Signal;HPM_P1;HPM_P2
2021/04/02 00:01:12;;;;;;;17.92;7.85;;;12.70;63.10;;;;;;5103951;28;27398;-55
2021/04/02 00:03:56;;;;;;;20.52;9.05;;;12.60;63.00;;;;;;5103309;28;27395;-55
2021/04/02 00:06:40;;;;;;;21.33;9.88;;;12.60;63.00;;;;;;5088607;28;27424;-55
2021/04/02 00:09:25;;;;;;;18.55;8.98;;;12.60;63.20;;;;;;5100252;28;27462;-54
2021/04/02 00:12:10;;;;;;;19.00;8.70;;;12.60;63.20;;;;;;5103833;28;27392;-55
2021/04/02 00:14:54;;;;;;;19.60;9.13;;;12.50;63.30;;;;;;5103201;28;27396;-55
2021/04/02 00:17:38;;;;;;;19.80;9.07;;;12.50;63.20;;;;;;5103639;28;27419;-54
2021/04/02 00:20:23;;;;;;;21.90;9.90;;;12.40;63.40;;;;;;5104604;27;27409;-54
2021/04/02 00:23:07;;;;;;;16.85;9.23;;;12.40;63.50;;;;;;5091711;28;27483;-55
2021/04/02 00:25:52;;;;;;;24.20;9.60;;;12.40;63.50;;;;;;5106784;28;27426;-53
2021/04/02 00:28:37;;;;;;;22.58;10.27;;;12.40;63.60;;;;;;5106752;28;27420;-54
2021/04/02 00:31:23;;;;;;;19.70;11.15;;;12.30;63.80;;;;;;5103443;28;27431;-55
2021/04/02 00:34:08;;;;;;;22.27;11.30;;;12.30;63.80;;;;;;5091948;28;27442;-55
2021/04/02 00:36:53;;;;;;;20.27;12.00;;;12.30;64.00;;;;;;5106601;28;27432;-54
2021/04/02 00:39:37;;;;;;;22.40;11.77;;;12.30;64.00;;;;;;5106842;28;27412;-55
2021/04/02 00:42:22;;;;;;;27.55;13.02;;;12.20;64.20;;;;;;5106471;28;27458;-53
2021/04/02 00:45:06;;;;;;;23.65;13.65;;;12.20;64.50;;;;;;5106173;28;27455;-56
2021/04/02 00:47:52;;;;;;;22.23;12.10;;;12.20;64.60;;;;;;5106649;28;27445;-54
2021/04/02 00:50:50;;;;;;;28.92;13.45;;;12.10;64.40;;;;;;5091448;28;27483;-55
2021/04/02 00:53:38;;;;;;;26.17;13.05;;;12.20;64.60;;;;;;5106286;28;27435;-55
2021/04/02 00:56:23;;;;;;;29.10;15.20;;;12.10;64.60;;;;;;5087943;28;27368;-55
2021/04/02 00:59:09;;;;;;;22.25;13.73;;;12.10;65.50;;;;;;5088418;28;27333;-54
2021/04/02 01:01:53;;;;;;;28.42;15.10;;;12.00;65.00;;;;;;5102063;28;27320;-54
2021/04/02 01:04:38;;;;;;;33.15;16.23;;;12.00;65.00;;;;;;5087560;28;27429;-54
2021/04/02 01:07:23;;;;;;;31.75;16.30;;;12.00;65.00;;;;;;5106354;28;27399;-55
2021/04/02 01:10:13;;;;;;;29.80;15.68;;;12.00;65.00;;;;;;5106304;28;27391;-55
2021/04/02 01:13:07;;;;;;;28.45;15.93;;;12.00;65.10;;;;;;5102687;28;27513;-54
2021/04/02 01:15:56;;;;;;;30.23;16.17;;;12.00;65.10;;;;;;5102414;28;27612;-55
2021/04/02 01:18:51;;;;;;;31.77;16.13;;;12.00;65.10;;;;;;5102577;28;27348;-54
2021/04/02 01:21:38;;;;;;;32.35;18.15;;;12.00;65.30;;;;;;5102873;28;27355;-54
2021/04/02 01:24:23;;;;;;;36.17;18.77;;;12.00;65.30;;;;;;5087496;28;27328;-55
2021/04/02 01:27:15;;;;;;;31.58;18.95;;;11.90;65.50;;;;;;5105771;28;27474;-55
2021/04/02 01:30:08;;;;;;;36.25;18.95;;;11.90;65.50;;;;;;5102449;28;27383;-55
2021/04/02 01:32:53;;;;;;;35.13;18.92;;;11.90;65.70;;;;;;5102499;28;27397;-53
2021/04/02 01:35:41;;;;;;;32.70;18.95;;;11.90;65.70;;;;;;5073665;28;27445;-54
2021/04/02 01:38:28;;;;;;;39.40;20.30;;;11.90;65.40;;;;;;5102733;28;27415;-55
2021/04/02 01:41:13;;;;;;;35.25;18.48;;;11.80;65.50;;;;;;5102541;28;27325;-56
2021/04/02 01:44:00;;;;;;;36.13;19.25;;;11.90;65.80;;;;;;5073920;28;27385;-56
2021/04/02 01:46:45;;;;;;;35.83;19.42;;;11.80;65.70;;;;;;5090258;28;27390;-53
2021/04/02 01:49:31;;;;;;;40.05;21.27;;;11.80;66.10;;;;;;5088613;28;27475;-55
2021/04/02 01:52:16;;;;;;;40.80;22.25;;;11.80;66.20;;;;;;5103344;28;27447;-55
2021/04/02 01:55:01;;;;;;;33.60;20.10;;;11.80;65.90;;;;;;5104263;28;27423;-54
2021/04/02 01:57:47;;;;;;;40.10;21.42;;;11.80;66.20;;;;;;5087145;28;27482;-55
2021/04/02 02:00:37;;;;;;;38.28;20.42;;;11.80;66.40;;;;;;5073355;28;27480;-55
2021/04/02 02:03:23;;;;;;;51.50;22.52;;;11.80;66.20;;;;;;5102273;28;27363;-54
2021/04/02 02:06:08;;;;;;;40.05;21.35;;;11.80;66.20;;;;;;5086962;28;27336;-55
2021/04/02 02:09:13;;;;;;;35.35;20.77;;;11.80;66.40;;;;;;5061362;28;27850;-54
2021/04/02 02:11:59;;;;;;;38.88;21.40;;;11.80;66.50;;;;;;5087045;28;27467;-57
2021/04/02 02:14:52;;;;;;;41.95;21.85;;;11.80;66.60;;;;;;5105825;28;27376;-54
2021/04/02 02:18:01;;;;;;;39.45;21.70;;;11.80;66.50;;;;;;5075749;28;27326;-55
2021/04/02 02:20:46;;;;;;;42.70;22.95;;;11.80;66.80;;;;;;5105292;28;27479;-56
2021/04/02 02:23:37;;;;;;;35.42;20.85;;;11.70;66.40;;;;;;5061553;28;27365;-54
2021/04/02 02:26:22;;;;;;;41.53;23.42;;;11.70;66.70;;;;;;5058336;28;27403;-53
2021/04/02 02:29:11;;;;;;;42.85;22.48;;;11.70;66.50;;;;;;5102440;28;26889;-55
2021/04/02 02:31:55;;;;;;;37.45;20.38;;;11.70;66.60;;;;;;5087130;28;27917;-54
2021/04/02 02:34:48;;;;;;;37.20;21.67;;;11.70;66.50;;;;;;5074319;28;27334;-54
2021/04/02 02:37:38;;;;;;;42.28;21.58;;;11.70;66.50;;;;;;5087130;28;27333;-56
2021/04/02 02:40:25;;;;;;;41.17;22.40;;;11.70;66.80;;;;;;5105274;28;27459;-54
2021/04/02 02:43:10;;;;;;;37.70;21.98;;;11.70;66.90;;;;;;5104590;27;27412;-55
2021/04/02 02:45:55;;;;;;;40.97;21.88;;;11.60;66.90;;;;;;5104192;28;27490;-55
2021/04/02 02:48:47;;;;;;;42.88;22.83;;;11.60;67.10;;;;;;5087111;28;27503;-55
2021/04/02 02:51:32;;;;;;;34.80;20.85;;;11.60;67.20;;;;;;5090024;28;27427;-54
2021/04/02 02:54:18;;;;;;;35.95;21.73;;;11.60;67.30;;;;;;5072312;28;27412;-54
2021/04/02 02:57:06;;;;;;;36.00;20.65;;;11.60;67.30;;;;;;5100800;28;27419;-54
2021/04/02 02:59:52;;;;;;;37.10;20.90;;;11.60;67.30;;;;;;5086613;28;27388;-55
2021/04/02 03:02:37;;;;;;;37.88;20.15;;;11.60;67.20;;;;;;5086208;28;27423;-56
2021/04/02 03:05:24;;;;;;;33.17;19.83;;;11.60;67.30;;;;;;5089423;28;27345;-55
2021/04/02 03:08:10;;;;;;;38.03;19.38;;;11.60;67.50;;;;;;5071917;28;27337;-55
2021/04/02 03:10:55;;;;;;;37.30;20.20;;;11.50;67.30;;;;;;5072113;28;27404;-56
2021/04/02 03:13:40;;;;;;;32.45;17.10;;;11.60;67.10;;;;;;5086228;28;27388;-57
2021/04/02 03:16:26;;;;;;;32.00;18.50;;;11.50;66.80;;;;;;5100713;28;27386;-57
2021/04/02 03:19:16;;;;;;;31.77;17.67;;;11.50;66.80;;;;;;5100522;28;27426;-54
2021/04/02 03:22:02;;;;;;;30.95;17.17;;;11.50;66.90;;;;;;5089762;28;27396;-56
2021/04/02 03:25:12;;;;;;;28.08;16.50;;;11.50;66.80;;;;;;5091394;28;27803;-56
2021/04/02 03:28:04;;;;;;;33.70;17.60;;;11.50;66.80;;;;;;5100106;28;27386;-56
2021/04/02 03:30:56;;;;;;;30.65;17.63;;;11.50;66.70;;;;;;5086621;28;27325;-56
2021/04/02 03:33:53;;;;;;;33.00;17.00;;;11.40;66.80;;;;;;5101048;28;27334;-54
2021/04/02 03:36:44;;;;;;;29.55;17.33;;;11.40;66.90;;;;;;5071798;28;27459;-56
2021/04/02 03:39:34;;;;;;;33.45;17.23;;;11.40;67.10;;;;;;5086699;28;27377;-54
2021/04/02 03:42:24;;;;;;;27.55;16.35;;;11.40;67.50;;;;;;5086489;28;27490;-54
2021/04/02 03:45:10;;;;;;;29.58;17.13;;;11.30;67.40;;;;;;5101539;28;27425;-55
2021/04/02 03:47:56;;;;;;;28.55;15.93;;;11.30;67.20;;;;;;5099590;28;27318;-55
2021/04/02 03:50:43;;;;;;;27.83;16.33;;;11.30;67.20;;;;;;5074765;28;27376;-54
2021/04/02 03:53:33;;;;;;;35.28;16.50;;;11.30;67.30;;;;;;5085022;27;27514;-52
2021/04/02 03:56:23;;;;;;;31.65;15.90;;;11.30;67.40;;;;;;5074985;28;27466;-53
2021/04/02 03:59:09;;;;;;;31.33;16.00;;;11.20;67.30;;;;;;5088963;28;27390;-55
2021/04/02 04:01:59;;;;;;;27.92;15.63;;;11.20;67.20;;;;;;5089827;28;27418;-55
2021/04/02 04:04:46;;;;;;;25.65;14.63;;;11.20;67.30;;;;;;5104134;28;27325;-55
2021/04/02 04:07:32;;;;;;;31.67;15.27;;;11.20;67.70;;;;;;5075090;28;27412;-53
2021/04/02 04:10:18;;;;;;;22.05;13.57;;;11.20;67.60;;;;;;5074848;28;27343;-55
2021/04/02 04:13:03;;;;;;;26.55;13.38;;;11.10;67.80;;;;;;5088516;28;27861;-55
2021/04/02 04:15:48;;;;;;;24.05;13.55;;;11.10;68.10;;;;;;5074174;28;27393;-53
2021/04/02 04:18:35;;;;;;;21.00;13.38;;;11.10;67.80;;;;;;5088805;28;27466;-53
2021/04/02 04:21:21;;;;;;;27.08;13.38;;;11.10;67.90;;;;;;5074568;28;27381;-54
2021/04/02 04:24:15;;;;;;;23.27;12.70;;;11.00;67.60;;;;;;5089585;28;27980;-54
2021/04/02 04:27:01;;;;;;;21.42;12.88;;;11.00;67.70;;;;;;5106829;28;27411;-54
2021/04/02 04:29:50;;;;;;;23.52;12.20;;;11.00;67.80;;;;;;5091921;28;27437;-53
2021/04/02 04:32:35;;;;;;;22.58;12.85;;;11.00;67.80;;;;;;5106740;28;27476;-55
2021/04/02 04:35:19;;;;;;;19.52;11.70;;;10.90;68.10;;;;;;5077124;28;27870;-52
2021/04/02 04:38:05;;;;;;;17.75;11.88;;;10.90;68.00;;;;;;5091226;28;27668;-53
2021/04/02 04:40:50;;;;;;;20.63;10.88;;;10.90;68.10;;;;;;5106969;28;27463;-54
2021/04/02 04:43:34;;;;;;;18.85;10.98;;;10.90;68.00;;;;;;5091741;28;27487;-49
2021/04/02 04:46:19;;;;;;;19.83;10.18;;;10.80;67.90;;;;;;5090684;28;27502;-53
2021/04/02 04:49:03;;;;;;;15.25;10.20;;;10.80;68.00;;;;;;5091511;28;27424;-52
2021/04/02 04:51:48;;;;;;;19.33;9.43;;;10.80;68.00;;;;;;5091505;28;27459;-54
2021/04/02 04:54:33;;;;;;;18.83;9.27;;;10.70;68.00;;;;;;5091548;28;27499;-55
2021/04/02 04:57:18;;;;;;;16.75;10.05;;;10.80;67.80;;;;;;5091142;28;27467;-55
2021/04/02 05:00:04;;;;;;;14.98;8.25;;;10.70;67.90;;;;;;5091451;28;27522;-55
2021/04/02 05:02:49;;;;;;;16.30;7.90;;;10.70;67.60;;;;;;5106330;28;27482;-54
2021/04/02 05:05:36;;;;;;;12.35;7.45;;;10.70;67.50;;;;;;5089943;27;27699;-55
2021/04/02 05:08:25;;;;;;;14.15;8.10;;;10.70;67.40;;;;;;5090907;28;27438;-54
2021/04/02 05:11:11;;;;;;;11.85;7.20;;;10.60;67.30;;;;;;5106045;28;27334;-55
2021/04/02 05:13:56;;;;;;;12.75;6.72;;;10.70;67.30;;;;;;5106443;28;27413;-55
2021/04/02 05:16:41;;;;;;;12.48;6.75;;;10.60;67.30;;;;;;5106030;28;27331;-51
2021/04/02 05:19:26;;;;;;;10.15;6.10;;;10.60;67.30;;;;;;5091192;28;27492;-54
2021/04/02 05:22:10;;;;;;;8.82;6.22;;;10.60;67.30;;;;;;5076751;28;27301;-55
2021/04/02 05:24:55;;;;;;;12.45;5.38;;;10.60;67.10;;;;;;5105925;28;27417;-53
2021/04/02 05:27:39;;;;;;;12.75;5.72;;;10.60;67.00;;;;;;5106210;28;27366;-54
2021/04/02 05:30:24;;;;;;;9.63;5.60;;;10.70;67.00;;;;;;5090979;28;27380;-51
2021/04/02 05:33:09;;;;;;;12.07;4.78;;;10.70;66.90;;;;;;5102655;28;27453;-53
2021/04/02 05:35:53;;;;;;;9.77;4.53;;;10.70;66.90;;;;;;5105618;28;27399;-56
2021/04/02 05:38:38;;;;;;;10.55;5.32;;;10.70;66.50;;;;;;5087283;28;27459;-54
2021/04/02 05:41:31;;;;;;;8.65;4.68;;;10.70;66.30;;;;;;5105694;28;27342;-54
2021/04/02 05:44:18;;;;;;;9.98;3.90;;;10.70;66.00;;;;;;5105114;28;27482;-54
2021/04/02 05:47:05;;;;;;;9.90;4.22;;;10.80;66.00;;;;;;5090565;28;27329;-52
2021/04/02 05:49:49;;;;;;;8.70;4.22;;;10.80;65.60;;;;;;5072746;28;27333;-53
2021/04/02 05:52:34;;;;;;;5.55;3.28;;;10.90;65.60;;;;;;5102448;28;27949;-54
2021/04/02 05:55:19;;;;;;;13.52;3.72;;;10.90;65.10;;;;;;5105380;28;27401;-52
2021/04/02 05:58:04;;;;;;;6.90;3.25;;;10.90;65.00;;;;;;5090394;28;27373;-52
2021/04/02 06:00:49;;;;;;;5.00;3.13;;;11.00;64.90;;;;;;5105033;28;27362;-54
2021/04/02 06:03:33;;;;;;;5.88;2.60;;;11.10;64.10;;;;;;5105387;28;28043;-51
2021/04/02 06:06:17;;;;;;;8.15;2.92;;;11.20;63.90;;;;;;5090294;28;27381;-50
2021/04/02 06:09:02;;;;;;;3.22;2.53;;;11.20;63.50;;;;;;5090267;28;27297;-51
2021/04/02 06:11:47;;;;;;;5.88;2.78;;;11.30;62.80;;;;;;5105135;28;27344;-55
2021/04/02 06:14:31;;;;;;;5.45;2.42;;;11.40;62.70;;;;;;5090068;28;27847;-55
2021/04/02 06:17:16;;;;;;;3.88;2.50;;;11.50;62.60;;;;;;5089616;28;27506;-55
2021/04/02 06:20:07;;;;;;;3.33;2.17;;;11.60;62.00;;;;;;5086600;28;27479;-55
2021/04/02 06:23:05;;;;;;;6.72;2.53;;;11.70;61.60;;;;;;5086760;28;27457;-55
2021/04/02 06:25:54;;;;;;;3.70;2.35;;;11.80;61.20;;;;;;5105122;28;27857;-54
2021/04/02 06:28:39;;;;;;;3.15;1.83;;;12.00;61.00;;;;;;5089041;28;27349;-53
2021/04/02 06:31:25;;;;;;;5.13;2.05;;;12.10;60.50;;;;;;5101549;28;26893;-54
2021/04/02 06:34:10;;;;;;;5.72;2.33;;;12.20;60.20;;;;;;5104778;28;27391;-52
2021/04/02 06:37:03;;;;;;;5.25;1.88;;;12.30;60.10;;;;;;5075046;28;27352;-54
2021/04/02 06:39:51;;;;;;;4.00;2.53;;;12.40;59.80;;;;;;5104688;28;27500;-52
2021/04/02 06:42:36;;;;;;;6.40;2.03;;;12.50;59.20;;;;;;5104678;28;27443;-55
2021/04/02 06:45:20;;;;;;;6.82;2.30;;;12.60;58.90;;;;;;5103747;28;27052;-55
2021/04/02 06:48:10;;;;;;;3.40;2.00;;;12.70;58.70;;;;;;5103924;28;27411;-55
2021/04/02 06:50:55;;;;;;;4.13;2.42;;;12.90;58.10;;;;;;5101434;28;27393;-52
2021/04/02 06:53:42;;;;;;;6.15;2.67;;;13.10;57.80;;;;;;5104806;28;27455;-54
2021/04/02 06:56:26;;;;;;;8.10;2.10;;;13.20;57.50;;;;;;5103764;28;27492;-55
2021/04/02 06:59:14;;;;;;;5.97;2.45;;;13.50;57.50;;;;;;5089150;28;27500;-51
2021/04/02 07:02:00;;;;;;;6.18;2.15;;;13.80;57.10;;;;;;5104675;28;27384;-54
2021/04/02 07:04:45;;;;;;;2.40;2.10;;;14.30;55.60;;;;;;5089665;28;27379;-52
2021/04/02 07:07:30;;;;;;;6.05;2.15;;;14.80;54.70;;;;;;5089604;28;27332;-55
2021/04/02 07:10:14;;;;;;;3.65;2.28;;;15.40;53.60;;;;;;5075082;28;27345;-56
2021/04/02 07:13:04;;;;;;;4.72;1.90;;;16.20;52.60;;;;;;5104531;28;27375;-54
2021/04/02 07:15:49;;;;;;;3.38;2.13;;;16.80;51.40;;;;;;5104454;28;27484;-55
2021/04/02 07:18:34;;;;;;;3.67;2.13;;;17.50;49.90;;;;;;5104672;28;27396;-56
2021/04/02 07:21:18;;;;;;;4.57;2.10;;;18.10;48.50;;;;;;5103937;28;27666;-56
2021/04/02 07:24:03;;;;;;;3.35;2.00;;;18.60;46.90;;;;;;5089305;28;27440;-55
2021/04/02 07:26:48;;;;;;;7.00;2.67;;;19.20;46.20;;;;;;5104701;28;27399;-55
2021/04/02 07:29:33;;;;;;;4.22;2.10;;;19.70;45.80;;;;;;5106075;27;27461;-54
2021/04/02 07:32:18;;;;;;;3.90;2.17;;;20.20;44.20;;;;;;5107743;28;27881;-54
2021/04/02 07:35:03;;;;;;;5.15;3.35;;;20.70;43.90;;;;;;5104710;28;27400;-55
2021/04/02 07:37:52;;;;;;;2.08;1.73;;;21.30;43.30;;;;;;5092913;28;27440;-56
2021/04/02 07:40:37;;;;;;;5.10;2.08;;;21.50;43.30;;;;;;5104373;28;27406;-55
2021/04/02 07:43:21;;;;;;;4.35;2.20;;;21.40;42.90;;;;;;5107946;28;27340;-52
2021/04/02 07:46:14;;;;;;;5.60;2.10;;;21.20;43.80;;;;;;5106503;28;27434;-53
2021/04/02 07:49:08;;;;;;;4.30;2.20;;;21.10;44.30;;;;;;5107351;28;27403;-53
2021/04/02 07:51:53;;;;;;;5.00;2.15;;;21.00;44.80;;;;;;5107798;28;27445;-54
2021/04/02 07:54:40;;;;;;;7.18;2.70;;;21.00;45.00;;;;;;5092255;28;27475;-54
2021/04/02 07:57:25;;;;;;;3.78;2.55;;;21.00;45.20;;;;;;5107066;28;27593;-53
2021/04/02 08:00:10;;;;;;;5.13;2.55;;;20.90;45.50;;;;;;5107488;28;27528;-54
2021/04/02 08:03:16;;;;;;;7.03;2.10;;;20.70;45.70;;;;;;5092645;28;27431;-50
2021/04/02 08:06:08;;;;;;;3.13;2.15;;;20.50;46.30;;;;;;5107314;28;27489;-53
2021/04/02 08:08:53;;;;;;;5.32;2.28;;;20.30;46.90;;;;;;5107513;28;27421;-54
2021/04/02 08:11:44;;;;;;;4.47;2.33;;;20.20;47.40;;;;;;5075005;28;27513;-55
2021/04/02 08:14:36;;;;;;;4.57;2.28;;;20.10;47.70;;;;;;5103965;28;27321;-55
2021/04/02 08:17:23;;;;;;;3.63;2.08;;;20.00;47.90;;;;;;5106846;28;27844;-55
2021/04/02 08:20:13;;;;;;;5.25;2.90;;;20.00;47.90;;;;;;5106948;28;27387;-54
2021/04/02 08:22:57;;;;;;;7.15;2.28;;;19.90;47.70;;;;;;5088844;28;27408;-55
2021/04/02 08:25:42;;;;;;;3.63;2.58;;;19.90;47.20;;;;;;5107272;28;27490;-56
2021/04/02 08:28:26;;;;;;;4.03;2.47;;;19.90;46.90;;;;;;5107176;28;27517;-56
2021/04/02 08:31:11;;;;;;;5.00;2.55;;;20.10;46.80;;;;;;5107226;28;27565;-56
2021/04/02 08:33:55;;;;;;;6.40;2.80;;;20.20;44.90;;;;;;5091809;28;27381;-55
2021/04/02 08:36:40;;;;;;;9.13;2.35;;;20.30;45.70;;;;;;5106646;28;27324;-56
2021/04/02 08:39:25;;;;;;;8.10;2.60;;;20.30;45.40;;;;;;5106896;28;27959;-54
2021/04/02 08:42:11;;;;;;;7.40;2.65;;;20.60;43.80;;;;;;5103066;28;27586;-56
2021/04/02 08:44:55;;;;;;;5.70;2.50;;;21.40;43.20;;;;;;5106068;28;27418;-56
2021/04/02 08:47:40;;;;;;;4.57;2.45;;;22.30;41.60;;;;;;5106661;28;27363;-56
2021/04/02 08:50:24;;;;;;;3.00;2.28;;;23.40;39.70;;;;;;5106993;28;27397;-55
2021/04/02 08:53:09;;;;;;;6.32;2.60;;;24.40;38.20;;;;;;5107265;28;27446;-56
2021/04/02 08:55:54;;;;;;;4.20;2.35;;;25.30;36.70;;;;;;5103187;28;27375;-55
2021/04/02 08:58:40;;;;;;;4.93;2.53;;;26.20;35.90;;;;;;5106868;28;27347;-55
2021/04/02 09:01:25;;;;;;;3.60;2.30;;;26.90;35.30;;;;;;5091667;28;27904;-56
2021/04/02 09:04:10;;;;;;;3.40;2.40;;;27.50;34.70;;;;;;5106761;28;27357;-55
2021/04/02 09:06:55;;;;;;;7.05;2.33;;;27.90;34.10;;;;;;5106417;28;27336;-55
2021/04/02 09:09:41;;;;;;;4.32;2.30;;;28.40;33.70;;;;;;5090885;28;27399;-55
2021/04/02 09:12:25;;;;;;;4.18;2.28;;;28.80;33.10;;;;;;5106637;28;27319;-55
2021/04/02 09:15:16;;;;;;;3.90;2.20;;;29.10;32.90;;;;;;5106503;28;27379;-55
2021/04/02 09:18:27;;;;;;;5.10;1.80;;;29.50;32.70;;;;;;5106455;28;27521;-55
2021/04/02 09:21:12;;;;;;;4.40;2.20;;;29.80;32.30;;;;;;5106468;28;26919;-56
2021/04/02 09:23:57;;;;;;;4.35;2.40;;;30.10;31.90;;;;;;5091175;28;27460;-56
2021/04/02 09:26:42;;;;;;;4.30;2.60;;;30.30;30.80;;;;;;5106180;28;27355;-55
2021/04/02 09:29:26;;;;;;;5.45;2.13;;;30.60;30.80;;;;;;5106369;28;27463;-55
2021/04/02 09:32:11;;;;;;;4.07;1.80;;;30.90;30.30;;;;;;5090785;28;27359;-56
2021/04/02 09:34:57;;;;;;;6.40;2.22;;;31.10;30.30;;;;;;5105842;28;27329;-55
2021/04/02 09:37:41;;;;;;;2.08;1.48;;;31.30;30.10;;;;;;5090248;28;27633;-56
2021/04/02 09:40:28;;;;;;;5.75;1.75;;;31.50;29.90;;;;;;5076764;28;27424;-56
2021/04/02 09:43:13;;;;;;;2.95;1.98;;;31.80;29.70;;;;;;5106021;28;27397;-55
2021/04/02 09:45:57;;;;;;;5.40;2.33;;;31.90;29.40;;;;;;5075830;28;27986;-56
2021/04/02 09:48:42;;;;;;;3.80;1.33;;;32.00;29.40;;;;;;5105807;28;27494;-56
2021/04/02 09:51:27;;;;;;;3.17;1.88;;;32.20;29.40;;;;;;5105692;28;27456;-56
2021/04/02 09:54:12;;;;;;;5.32;2.30;;;32.40;29.20;;;;;;5087082;28;27435;-56
2021/04/02 09:56:58;;;;;;;3.22;1.77;;;32.60;28.60;;;;;;5105454;28;27574;-56
2021/04/02 09:59:43;;;;;;;7.68;2.08;;;32.80;28.80;;;;;;5105776;28;27428;-56
2021/04/02 10:02:28;;;;;;;5.50;1.98;;;33.00;28.60;;;;;;5105562;28;27394;-56
2021/04/02 10:05:13;;;;;;;3.65;1.90;;;33.20;28.40;;;;;;5105294;28;28101;-57
2021/04/02 10:07:57;;;;;;;3.85;2.00;;;33.40;27.60;;;;;;5105566;28;28035;-57
2021/04/02 10:10:42;;;;;;;2.83;1.80;;;33.60;27.40;;;;;;5105643;28;27538;-57
2021/04/02 10:13:26;;;;;;;3.30;2.20;;;33.70;27.50;;;;;;5105593;28;27525;-56
2021/04/02 10:16:11;;;;;;;5.53;1.80;;;33.80;27.40;;;;;;5105378;28;27406;-56
2021/04/02 10:18:56;;;;;;;5.85;2.05;;;34.00;27.40;;;;;;5089985;28;27341;-56
2021/04/02 10:21:40;;;;;;;3.28;1.77;;;34.30;26.60;;;;;;5105537;28;27348;-57
2021/04/02 10:24:24;;;;;;;5.68;2.20;;;34.40;26.10;;;;;;5090004;28;27419;-56
2021/04/02 10:27:09;;;;;;;3.65;2.35;;;34.20;26.10;;;;;;5105431;28;27313;-56
2021/04/02 10:29:54;;;;;;;5.25;2.78;;;34.00;25.20;;;;;;5090219;28;27372;-57
2021/04/02 10:32:39;;;;;;;5.35;2.30;;;33.60;26.00;;;;;;5104917;28;27433;-56
2021/04/02 10:35:26;;;;;;;4.05;2.10;;;33.30;26.20;;;;;;5104966;28;27353;-56
2021/04/02 10:38:11;;;;;;;6.68;2.55;;;33.10;26.80;;;;;;5105022;28;27376;-57
2021/04/02 10:40:56;;;;;;;17.33;5.65;;;33.30;26.50;;;;;;5104877;28;27346;-51
2021/04/02 10:43:40;;;;;;;125.03;30.77;;;33.40;24.00;;;;;;5105114;28;27404;-55
2021/04/02 10:46:25;;;;;;;57.40;16.25;;;32.40;32.50;;;;;;5104097;28;27356;-54
2021/04/02 10:49:09;;;;;;;10.68;6.60;;;31.30;31.60;;;;;;5105143;28;27387;-55
2021/04/02 10:51:54;;;;;;;17.00;5.28;;;30.80;27.00;;;;;;5104897;28;27352;-51
2021/04/02 10:54:38;;;;;;;11.95;3.80;;;30.50;32.50;;;;;;5104581;28;27516;-54
2021/04/02 10:57:22;;;;;;;10.40;2.97;;;30.80;31.80;;;;;;5104561;28;27344;-55
2021/04/02 11:00:08;;;;;;;7.25;3.22;;;31.30;31.00;;;;;;5103985;28;27385;-53
2021/04/02 11:02:52;;;;;;;8.10;2.90;;;31.80;30.80;;;;;;5104475;28;27358;-54
2021/04/02 11:05:37;;;;;;;7.70;3.15;;;32.20;28.80;;;;;;5101136;28;27340;-53
2021/04/02 11:08:22;;;;;;;6.95;3.05;;;32.50;29.20;;;;;;5104753;28;27413;-55
2021/04/02 11:11:06;;;;;;;3.90;2.15;;;32.80;28.90;;;;;;5104684;28;27465;-56
2021/04/02 11:13:51;;;;;;;10.88;2.35;;;33.00;28.80;;;;;;5104569;28;27502;-54
2021/04/02 11:16:35;;;;;;;2.15;1.95;;;33.20;28.60;;;;;;5104597;28;27399;-55
2021/04/02 11:19:20;;;;;;;4.18;2.30;;;33.40;28.40;;;;;;5105123;28;27485;-55
2021/04/02 11:22:04;;;;;;;4.53;2.10;;;33.60;27.30;;;;;;5086210;28;27429;-55
2021/04/02 11:24:49;;;;;;;6.28;2.20;;;33.80;27.40;;;;;;5104721;28;27902;-55
2021/04/02 11:27:34;;;;;;;5.32;2.42;;;33.90;26.20;;;;;;5104445;28;27522;-55
2021/04/02 11:30:20;;;;;;;5.43;3.00;;;33.90;26.10;;;;;;5101523;28;27450;-53
2021/04/02 11:33:05;;;;;;;3.53;2.25;;;33.90;26.80;;;;;;5104592;28;27401;-55
2021/04/02 11:35:50;;;;;;;5.35;2.53;;;34.10;27.60;;;;;;5089120;28;27482;-55
2021/04/02 11:38:36;;;;;;;3.90;2.20;;;34.30;27.30;;;;;;5104430;28;27480;-57
2021/04/02 11:41:21;;;;;;;2.03;1.60;;;34.40;27.40;;;;;;5104106;28;27344;-53
2021/04/02 11:44:05;;;;;;;6.63;2.08;;;34.50;27.00;;;;;;5085481;28;27449;-54
2021/04/02 11:46:50;;;;;;;5.45;2.05;;;34.60;26.50;;;;;;5063182;28;27995;-53
2021/04/02 11:49:37;;;;;;;3.85;2.05;;;34.70;26.00;;;;;;5063527;28;27476;-54
2021/04/02 11:52:22;;;;;;;4.18;1.70;;;34.60;25.50;;;;;;5063504;28;27431;-54
2021/04/02 11:55:07;;;;;;;2.67;1.60;;;34.60;25.70;;;;;;5063516;28;27466;-56
2021/04/02 11:57:51;;;;;;;3.92;2.00;;;34.60;25.80;;;;;;5062802;28;27428;-55
2021/04/02 12:00:36;;;;;;;2.85;1.80;;;34.60;25.90;;;;;;5063533;28;27408;-56
2021/04/02 12:03:21;;;;;;;4.53;2.05;;;34.60;26.40;;;;;;5059287;28;27428;-56
2021/04/02 12:06:06;;;;;;;5.43;1.83;;;34.70;26.50;;;;;;5063093;28;27455;-55
2021/04/02 12:08:51;;;;;;;39.28;5.00;;;34.80;26.70;;;;;;5063051;28;27965;-56
2021/04/02 12:11:35;;;;;;;14.52;4.47;;;34.30;25.30;;;;;;5063320;28;27463;-52
2021/04/02 12:14:20;;;;;;;14.48;3.60;;;33.80;25.50;;;;;;5059901;28;27412;-53
2021/04/02 12:17:04;;;;;;;8.63;2.33;;;33.50;26.40;;;;;;5066574;28;27473;-55
2021/04/02 12:19:49;;;;;;;13.13;2.20;;;33.60;27.60;;;;;;5066668;28;27463;-56
2021/04/02 12:22:34;;;;;;;7.22;2.50;;;33.80;28.30;;;;;;5062239;28;27421;-53
2021/04/02 12:25:18;;;;;;;5.78;1.60;;;34.00;26.50;;;;;;5065899;28;27425;-54
2021/04/02 12:28:03;;;;;;;3.53;2.00;;;34.10;26.60;;;;;;5066572;28;27488;-55
2021/04/02 12:30:47;;;;;;;3.55;1.50;;;34.10;26.00;;;;;;5062993;28;27411;-53
2021/04/02 12:33:32;;;;;;;3.42;1.67;;;34.10;26.60;;;;;;5065646;28;27494;-53
2021/04/02 12:36:16;;;;;;;3.28;1.75;;;34.20;27.20;;;;;;5066199;28;27354;-52
2021/04/02 12:39:01;;;;;;;2.97;1.42;;;34.20;27.20;;;;;;5066203;28;27379;-52
2021/04/02 12:41:45;;;;;;;3.63;1.98;;;34.30;26.80;;;;;;5066095;28;27940;-55
2021/04/02 12:44:30;;;;;;;2.97;1.63;;;34.20;26.40;;;;;;5070871;28;27424;-50
2021/04/02 12:47:14;;;;;;;2.03;1.67;;;34.20;27.40;;;;;;5106853;28;27418;-51
2021/04/02 12:49:59;;;;;;;2.88;1.40;;;34.30;28.20;;;;;;5106721;28;27372;-53
2021/04/02 12:52:44;;;;;;;7.93;1.60;;;34.40;28.30;;;;;;5106897;28;28047;-54
2021/04/02 12:55:29;;;;;;;8.45;1.58;;;34.40;27.40;;;;;;5106510;28;27378;-53
2021/04/02 12:58:14;;;;;;;12.00;1.90;;;34.40;27.30;;;;;;5106602;28;27432;-52
2021/04/02 13:00:58;;;;;;;6.80;1.50;;;34.40;27.60;;;;;;5091708;28;27416;-53
2021/04/02 13:03:42;;;;;;;3.70;1.77;;;34.40;27.80;;;;;;5106804;28;27385;-54
2021/04/02 13:06:27;;;;;;;4.50;1.48;;;34.30;27.50;;;;;;5091450;28;27331;-49
2021/04/02 13:09:12;;;;;;;4.82;1.40;;;34.40;27.90;;;;;;5103574;28;27369;-54
2021/04/02 13:11:56;;;;;;;2.83;1.50;;;34.30;26.90;;;;;;5106710;28;27430;-56
2021/04/02 13:14:41;;;;;;;4.65;1.60;;;34.20;26.50;;;;;;5106604;28;27400;-55
2021/04/02 13:17:25;;;;;;;2.17;1.50;;;34.20;27.30;;;;;;5105507;28;27474;-53
2021/04/02 13:20:11;;;;;;;1.67;1.10;;;34.20;28.00;;;;;;5106512;28;27458;-52
2021/04/02 13:22:56;;;;;;;2.75;1.15;;;34.30;28.50;;;;;;5106125;28;27470;-54
2021/04/02 13:25:40;;;;;;;2.17;1.48;;;34.30;27.10;;;;;;5106174;28;27528;-53
2021/04/02 13:28:25;;;;;;;5.68;2.20;;;34.20;27.00;;;;;;5105343;27;27406;-54
2021/04/02 13:31:09;;;;;;;9.48;2.22;;;34.20;27.90;;;;;;5106337;28;27466;-52
2021/04/02 13:33:54;;;;;;;6.05;1.95;;;34.20;28.60;;;;;;5105999;28;27458;-54
2021/04/02 13:36:38;;;;;;;11.70;2.75;;;34.20;29.50;;;;;;5106005;28;27441;-53
2021/04/02 13:39:23;;;;;;;9.52;2.00;;;34.20;29.30;;;;;;5105913;28;27416;-50
2021/04/02 13:42:07;;;;;;;5.32;2.22;;;34.10;28.20;;;;;;5106209;28;27453;-54
2021/04/02 13:44:52;;;;;;;7.20;2.22;;;34.10;27.70;;;;;;5105371;27;27463;-52
2021/04/02 13:47:37;;;;;;;4.35;2.08;;;34.00;28.50;;;;;;5105720;28;27525;-53
2021/04/02 13:50:32;;;;;;;2.63;1.42;;;33.80;28.80;;;;;;5106007;28;27459;-50
2021/04/02 13:53:17;;;;;;;4.10;1.45;;;33.70;28.00;;;;;;5105754;28;27451;-53
2021/04/02 13:56:02;;;;;;;1.73;1.40;;;33.70;29.40;;;;;;5105580;28;27383;-53
2021/04/02 13:58:47;;;;;;;2.08;1.50;;;33.50;29.60;;;;;;5105554;28;27389;-54
2021/04/02 14:01:31;;;;;;;1.70;1.20;;;33.40;27.80;;;;;;5105865;28;27419;-53
2021/04/02 14:04:16;;;;;;;4.95;1.30;;;33.30;27.90;;;;;;5105876;28;27387;-53
2021/04/02 14:07:01;;;;;;;4.68;1.40;;;33.10;28.00;;;;;;5105510;28;27313;-53
2021/04/02 14:09:46;;;;;;;4.63;1.60;;;32.90;26.40;;;;;;5105473;28;27869;-49
2021/04/02 14:12:31;;;;;;;1.52;1.20;;;32.80;27.60;;;;;;5104893;28;27380;-55
2021/04/02 14:15:21;;;;;;;3.50;1.45;;;32.60;28.80;;;;;;5090580;28;27398;-54